DW7087 Weather Reports


Display with metric or nautical units.
time (UTC)temp
F
wind
direction
speed
MPH
gust
MPH
rain 1hr
in
rain 24hr
in
rain mn
in
humidity
%
barometer
mb
20210917221750 57 0 0.0 0.0 0.00 0.00 0.00 92 1014.6
20210917220850 57 0 0.0 0.0 0.00 0.00 0.00 91 1014.5
20210917215950 57 0 0.0 0.0 0.00 0.00 0.00 91 1014.6
20210917215350 57 0 0.0 0.0 0.00 0.00 0.00 90 1014.6
20210917214450 57 0 0.0 0.0 0.00 0.00 0.00 90 1014.6
20210917213549 57 0 0.0 0.0 0.00 0.00 0.00 88 1014.7
20210917212649 57 0 0.0 0.0 0.00 0.00 0.00 88 1014.6
20210917211750 58 0 0.0 0.0 0.00 0.00 0.00 87 1014.6
20210917210850 58 0 0.0 0.0 0.00 0.00 0.00 86 1014.5
20210917205950 58 0 0.0 0.0 0.00 0.00 0.00 85 1014.4
20210917205349 59 0 0.0 0.0 0.00 0.00 0.00 85 1014.4
20210917204450 59 0 0.0 0.0 0.00 0.00 0.00 84 1014.3
20210917203550 59 0 0.0 0.0 0.00 0.00 0.00 83 1014.1
20210917202649 60 0 0.0 0.0 0.00 0.00 0.00 82 1014.0
20210917201749 60 0 0.0 0.0 0.00 0.00 0.00 82 1013.9
20210917200849 60 0 0.0 0.0 0.00 0.00 0.00 81 1014.0
20210917195950 61 0 0.0 0.0 0.00 0.00 0.00 80 1014.0
20210917195350 61 0 0.0 0.0 0.00 0.00 0.00 79 1014.0
20210917194449 61 165 0.0 2.0 0.00 0.00 0.00 78 1013.9
20210917193549 62 0 0.0 0.0 0.00 0.00 0.00 77 1013.8
20210917192650 62 160 0.0 2.0 0.00 0.00 0.00 77 1013.6
20210917191750 63 151 0.0 2.0 0.00 0.00 0.00 75 1013.5
20210917190850 63 168 2.0 2.0 0.00 0.00 0.00 75 1013.5
20210917185950 64 180 0.0 2.0 0.00 0.00 0.00 74 1013.4
20210917185350 64 166 1.0 3.0 0.00 0.00 0.00 74 1013.3
20210917184450 64 173 3.0 4.0 0.00 0.00 0.00 74 1013.2
20210917183550 65 158 3.0 4.0 0.00 0.00 0.00 74 1013.1
20210917182649 65 149 3.0 4.0 0.00 0.00 0.00 73 1013.2
20210917181750 66 165 3.0 4.0 0.00 0.00 0.00 73 1013.0
20210917180850 66 147 3.0 4.0 0.00 0.00 0.00 71 1013.0
20210917175950 67 157 3.0 5.0 0.00 0.00 0.00 70 1013.1
20210917175349 67 163 3.0 5.0 0.00 0.00 0.00 70 1013.1
20210917174450 67 166 3.0 7.0 0.00 0.00 0.00 68 1013.1
20210917173549 68 156 4.0 7.0 0.00 0.00 0.00 69 1013.1
20210917172649 68 143 2.0 6.0 0.00 0.00 0.00 69 1013.0
20210917171750 68 152 4.0 6.0 0.00 0.00 0.00 66 1013.0
20210917170850 68 162 4.0 7.0 0.00 0.00 0.00 66 1013.2
20210917165950 69 155 4.0 6.0 0.00 0.00 0.00 65 1013.1
20210917165350 69 149 2.0 4.0 0.00 0.00 0.00 65 1013.2
20210917164450 69 147 3.0 4.0 0.00 0.00 0.00 65 1013.1
20210917163550 69 164 2.0 6.0 0.00 0.00 0.00 64 1013.2
20210917162649 69 162 4.0 7.0 0.00 0.00 0.00 63 1013.0
20210917161750 69 138 4.0 6.0 0.00 0.00 0.00 63 1013.0
20210917160849 69 165 4.0 6.0 0.00 0.00 0.00 63 1013.1
20210917155950 69 148 2.0 4.0 0.00 0.00 0.00 64 1013.2
20210917155350 69 164 4.0 7.0 0.00 0.00 0.00 63 1013.1
20210917154450 69 180 3.0 6.0 0.00 0.00 0.00 64 1013.1
20210917153549 69 152 4.0 7.0 0.00 0.00 0.00 63 1013.2
20210917152649 70 148 4.0 7.0 0.00 0.00 0.00 63 1013.2
20210917151749 70 147 4.0 7.0 0.00 0.00 0.00 61 1013.3
20210917150850 70 154 4.0 7.0 0.00 0.00 0.00 61 1013.2
20210917145950 70 158 5.0 8.0 0.00 0.00 0.00 60 1013.4
20210917145349 70 175 6.0 9.0 0.00 0.00 0.00 60 1013.4
20210917144450 70 158 4.0 5.0 0.00 0.00 0.00 61 1013.5
20210917143549 70 162 4.0 7.0 0.00 0.00 0.00 60 1013.4
20210917142649 70 211 3.0 5.0 0.00 0.00 0.00 59 1013.6
20210917141749 70 198 4.0 7.0 0.00 0.00 0.00 58 1013.6
20210917140850 70 162 5.0 9.0 0.00 0.00 0.00 57 1013.7
20210917135950 71 146 5.0 8.0 0.00 0.00 0.00 57 1013.7
20210917135350 71 179 4.0 4.0 0.00 0.00 0.00 58 1013.8
20210917134449 70 167 6.0 8.0 0.00 0.00 0.00 56 1013.8
20210917133549 71 172 5.0 6.0 0.00 0.00 0.00 59 1013.9
20210917132649 70 180 4.0 8.0 0.00 0.00 0.00 59 1013.8
20210917131750 70 188 5.0 8.0 0.00 0.00 0.00 59 1013.8
20210917130849 70 170 6.0 9.0 0.00 0.00 0.00 60 1013.8
20210917125950 70 146 4.0 7.0 0.00 0.00 0.00 63 1013.9
20210917125349 70 148 4.0 7.0 0.00 0.00 0.00 64 1014.1
20210917124450 70 220 3.0 5.0 0.00 0.00 0.00 63 1014.0
20210917123549 70 222 4.0 5.0 0.00 0.00 0.00 62 1014.1
20210917122649 70 199 5.0 7.0 0.00 0.00 0.00 62 1014.2
20210917121749 70 165 5.0 9.0 0.00 0.00 0.00 61 1014.3
20210917120849 70 168 4.0 7.0 0.00 0.00 0.00 62 1014.4
20210917115950 70 168 4.0 8.0 0.00 0.00 0.00 63 1014.5
20210917115349 70 173 5.0 8.0 0.00 0.00 0.00 62 1014.6
20210917114449 70 173 3.0 7.0 0.00 0.00 0.00 62 1014.6
20210917113550 70 162 3.0 5.0 0.00 0.00 0.00 64 1014.6
20210917112649 70 160 6.0 8.0 0.00 0.00 0.00 63 1014.6
20210917111749 69 173 4.0 8.0 0.00 0.00 0.00 66 1014.7
20210917110849 69 197 3.0 5.0 0.00 0.00 0.00 70 1014.8
20210917105950 68 165 3.0 4.0 0.00 0.00 0.00 72 1014.8
20210917105349 67 157 4.0 6.0 0.00 0.00 0.00 72 1014.8
20210917104450 67 156 4.0 7.0 0.00 0.00 0.00 72 1014.9
20210917103550 67 160 3.0 5.0 0.00 0.00 0.00 73 1015.0
20210917102649 67 147 4.0 7.0 0.00 0.00 0.00 74 1014.9
20210917101749 66 178 4.0 7.0 0.00 0.00 0.00 77 1014.9
20210917100849 65 153 4.0 6.0 0.00 0.00 0.00 78 1014.9
20210917095950 64 197 3.0 5.0 0.00 0.00 0.00 80 1014.9
20210917095350 64 183 2.0 5.0 0.00 0.00 0.00 80 1014.9
20210917094449 64 186 2.0 4.0 0.00 0.00 0.00 81 1015.0
20210917093549 63 187 2.0 4.0 0.00 0.00 0.00 82 1015.1
20210917092649 63 214 3.0 5.0 0.00 0.00 0.00 84 1015.0
20210917091749 62 213 2.0 4.0 0.00 0.00 0.00 86 1015.1
20210917090850 62 170 4.0 8.0 0.00 0.00 0.00 87 1015.1
20210917085950 62 193 2.0 5.0 0.00 0.00 0.00 89 1015.1
20210917085349 62 187 1.0 4.0 0.00 0.00 0.00 90 1015.2
20210917084450 60 225 3.0 7.0 0.00 0.00 0.00 93 1015.2
20210917083550 60 187 3.0 6.0 0.00 0.00 0.00 94 1015.1
20210917082649 60 232 2.0 4.0 0.00 0.00 0.00 95 1015.1
20210917081750 60 203 2.0 3.0 0.00 0.00 0.00 95 1015.1
20210917080850 59 204 2.0 2.0 0.00 0.00 0.00 97 1015.0
20210917075950 59 293 0.0 2.0 0.00 0.00 0.00 97 1015.1
20210917075349 58 244 0.0 2.0 0.00 0.00 0.00 97 1015.0
20210917074450 58 251 2.0 4.0 0.00 0.00 0.00 97 1015.0
20210917073550 57 202 1.0 3.0 0.00 0.00 0.00 97 1014.9
20210917072649 57 171 1.0 3.0 0.00 0.00 0.00 98 1015.1
20210917071750 57 145 2.0 4.0 0.00 0.00 0.00 98 1015.0
20210917070849 56 140 1.0 2.0 0.00 0.00 0.00 97 1015.0
20210917065950 56 150 2.0 4.0 0.00 0.00 0.00 97 1015.0
20210917065349 55 159 1.0 3.0 0.00 0.00 0.00 97 1015.0
20210917064450 54 0 0.0 0.0 0.00 0.00 0.00 96 1015.0
20210917063549 54 0 0.0 0.0 0.00 0.00 0.00 95 1014.9
20210917062649 53 0 0.0 0.0 0.00 0.00 0.00 96 1015.0
20210917061749 53 0 0.0 0.0 0.00 0.00 0.00 96 1014.9
20210917060850 53 0 0.0 0.0 0.00 0.00 0.00 96 1015.0
20210917055950 53 0 0.0 0.0 0.00 0.00 0.00 96 1014.9
20210917055350 54 0 0.0 0.0 0.00 0.00 0.00 95 1014.9
20210917054449 54 0 0.0 0.0 0.00 0.00 0.00 95 1014.8
20210917053549 54 0 0.0 0.0 0.00 0.00 0.00 94 1014.9
20210917052649 54 0 0.0 0.0 0.00 0.00 0.00 94 1014.9
20210917051749 54 0 0.0 0.0 0.00 0.00 0.00 94 1015.0
20210917050849 54 0 0.0 0.0 0.00 0.00 0.00 94 1015.1
20210917045950 54 0 0.0 0.0 0.00 0.00 0.00 94 1015.0
20210917045350 54 0 0.0 0.0 0.00 0.00 0.00 93 1015.1
20210917044450 54 0 0.0 0.0 0.00 0.00 0.00 93 1015.1
20210917043549 54 0 0.0 0.0 0.00 0.00 0.00 93 1015.1
20210917042649 55 0 0.0 0.0 0.00 0.00 0.00 94 1015.3
20210917041749 55 0 0.0 0.0 0.00 0.00 0.00 94 1015.3
20210917040850 55 0 0.0 0.0 0.00 0.00 0.00 95 1015.4
20210917035949 56 0 0.0 0.0 0.00 0.00 0.00 95 1015.5
20210917035349 56 0 0.0 0.0 0.00 0.00 0.00 95 1015.4
20210917034450 56 0 0.0 0.0 0.00 0.00 0.00 95 1015.5
20210917033550 57 0 0.0 0.0 0.00 0.00 0.00 96 1015.6
20210917032649 57 0 0.0 0.0 0.00 0.00 0.00 95 1015.6
20210917031749 57 0 0.0 0.0 0.00 0.00 0.00 95 1015.7
20210917030850 57 0 0.0 0.0 0.00 0.00 0.00 95 1015.7
20210917025950 57 0 0.0 0.0 0.00 0.00 0.00 95 1015.9
20210917025349 57 0 0.0 0.0 0.00 0.00 0.00 95 1016.0
20210917024449 57 0 0.0 0.0 0.00 0.00 0.00 95 1016.0
20210917023550 57 174 1.0 4.0 0.00 0.00 0.00 95 1016.1
20210917022650 57 241 0.0 4.0 0.00 0.00 0.00 95 1016.2
20210917021749 57 236 1.0 4.0 0.00 0.00 0.00 95 1016.3
20210917020849 57 202 0.0 2.0 0.00 0.00 0.00 95 1016.4
20210917015950 57 231 2.0 4.0 0.00 0.00 0.00 96 1016.4
20210917015350 57 208 1.0 4.0 0.00 0.00 0.00 96 1016.5
20210917014450 57 166 1.0 3.0 0.00 0.00 0.00 96 1016.5
20210917013549 57 209 0.0 2.0 0.00 0.00 0.00 96 1016.5
20210917012650 56 221 0.0 2.0 0.00 0.00 0.00 96 1016.7
20210917011749 56 233 0.0 2.0 0.00 0.00 0.00 96 1016.6
20210917010849 56 225 0.0 1.0 0.00 0.00 0.00 95 1016.8
20210917005950 56 185 1.0 2.0 0.00 0.00 0.00 95 1016.9
20210917005349 56 175 1.0 3.0 0.00 0.00 0.00 94 1017.0
20210917004449 55 0 0.0 0.0 0.00 0.00 0.00 93 1016.9
20210917003549 55 0 0.0 0.0 0.00 0.00 0.00 92 1017.0
20210917002649 55 0 0.0 0.0 0.00 0.00 0.00 92 1017.0
20210917001749 55 0 0.0 0.0 0.00 0.00 0.00 93 1017.0
20210917000849 56 0 0.0 0.0 0.00 0.00 0.00 93 1016.9
20210916235950 56 0 0.0 0.0 0.00 0.00 0.00 93 1017.2
20210916235350 56 0 0.0 0.0 0.00 0.00 0.00 93 1017.1
20210916234450 56 0 0.0 0.0 0.00 0.00 0.00 93 1017.2
20210916233549 56 0 0.0 0.0 0.00 0.00 0.00 93 1017.3
20210916232649 57 0 0.0 0.0 0.00 0.00 0.00 93 1017.3
20210916231749 57 0 0.0 0.0 0.00 0.00 0.00 93 1017.3
20210916230849 57 0 0.0 0.0 0.00 0.00 0.00 92 1017.3
20210916225954 57 0 0.0 0.0 0.00 0.00 0.00 92 1017.4
20210916225349 58 225 0.0 3.0 0.00 0.00 0.00 92 1017.3
20210916224449 58 172 1.0 3.0 0.00 0.00 0.00 91 1017.4
20210916223549 58 0 0.0 0.0 0.00 0.00 0.00 91 1017.5
20210916222649 58 180 0.0 2.0 0.00 0.00 0.00 91 1017.4